Time;durP1;ratioP1;P1;durP2;ratioP2;P2;SDS_P1;SDS_P2;PMS_P1;PMS_P2;Temp;Humidity;BMP_temperature;BMP_pressure;BME280_temperature;BME280_humidity;BME280_pressure;Samples;Min_cycle;Max_cycle;Signal;HPM_P1;HPM_P2
2023/01/19 00:02:13;;;;;;;1.10;0.30;;;3.60;99.90;;;;;;5083232;28;20504;-67
2023/01/19 00:04:39;;;;;;;3.47;0.50;;;3.60;99.90;;;;;;5081875;28;20066;-69
2023/01/19 00:07:06;;;;;;;2.53;0.50;;;3.50;99.90;;;;;;5064255;28;20130;-67
2023/01/19 00:09:32;;;;;;;;;;;3.50;99.90;;;;;;5083052;28;20044;-66
2023/01/19 00:11:58;;;;;;;1.13;0.43;;;3.50;99.90;;;;;;5077475;28;19961;-70
2023/01/19 00:14:24;;;;;;;5.85;1.23;;;3.50;99.90;;;;;;5082866;28;20373;-67
2023/01/19 00:16:49;;;;;;;1.37;0.20;;;3.50;99.90;;;;;;5079130;28;20195;-68
2023/01/19 00:19:15;;;;;;;1.87;0.20;;;3.50;99.90;;;;;;5082309;28;20513;-71
2023/01/19 00:21:41;;;;;;;1.50;0.30;;;3.50;99.90;;;;;;5084507;28;20064;-66
2023/01/19 00:24:06;;;;;;;3.60;0.60;;;3.50;99.90;;;;;;5079084;28;20051;-66
2023/01/19 00:26:32;;;;;;;2.37;0.50;;;3.50;99.90;;;;;;5082853;28;20047;-66
2023/01/19 00:28:58;;;;;;;3.50;0.37;;;3.50;99.90;;;;;;5086510;28;20440;-66
2023/01/19 00:31:23;;;;;;;0.93;0.10;;;3.60;99.90;;;;;;5079888;28;20126;-67
2023/01/19 00:33:51;;;;;;;3.27;0.27;;;3.60;99.90;;;;;;5079222;28;20354;-66
2023/01/19 00:36:19;;;;;;;2.00;0.50;;;3.60;99.90;;;;;;5080826;28;20457;-68
2023/01/19 00:38:45;;;;;;;2.25;0.43;;;3.60;99.90;;;;;;5075210;28;20039;-68
2023/01/19 00:41:10;;;;;;;1.53;0.23;;;3.70;99.90;;;;;;5077418;28;20122;-72
2023/01/19 00:43:36;;;;;;;4.27;0.40;;;3.70;99.90;;;;;;5072473;28;20043;-67
2023/01/19 00:46:01;;;;;;;2.90;0.33;;;3.70;99.90;;;;;;5078650;28;20210;-67
2023/01/19 00:48:27;;;;;;;1.70;0.30;;;3.60;99.90;;;;;;5075991;28;20051;-68
2023/01/19 00:50:53;;;;;;;0.60;0.30;;;3.70;99.90;;;;;;5078042;28;20448;-68
2023/01/19 00:53:18;;;;;;;2.47;0.60;;;3.70;99.90;;;;;;5089318;22;20024;-66
2023/01/19 00:55:44;;;;;;;2.60;0.68;;;3.70;99.90;;;;;;5016200;28;20038;-66
2023/01/19 00:58:10;;;;;;;3.57;0.40;;;3.60;99.90;;;;;;5022584;28;20229;-66
2023/01/19 01:00:35;;;;;;;2.87;0.77;;;3.60;99.90;;;;;;5012940;28;20033;-66
2023/01/19 01:03:01;;;;;;;2.20;0.40;;;3.70;99.90;;;;;;5022259;28;20033;-66
2023/01/19 01:05:27;;;;;;;1.10;0.50;;;3.70;99.90;;;;;;5023952;28;20045;-66
2023/01/19 01:07:52;;;;;;;6.30;1.13;;;3.70;99.90;;;;;;5016144;28;20475;-66
2023/01/19 01:10:24;;;;;;;1.63;0.50;;;3.70;99.90;;;;;;5014762;28;20594;-66
2023/01/19 01:12:51;;;;;;;3.72;0.47;;;3.70;99.90;;;;;;5020337;28;20109;-67
2023/01/19 01:15:17;;;;;;;2.83;0.40;;;3.70;99.90;;;;;;5019375;28;20110;-67
2023/01/19 01:17:46;;;;;;;2.40;0.43;;;3.70;99.90;;;;;;5020885;28;20133;-67
2023/01/19 01:20:24;;;;;;;3.25;0.73;;;3.70;99.90;;;;;;5010121;28;20087;-67
2023/01/19 01:22:52;;;;;;;5.07;0.52;;;3.70;99.90;;;;;;5017093;28;20572;-67
2023/01/19 01:25:21;;;;;;;4.45;0.60;;;3.70;99.90;;;;;;5020694;28;20071;-66
2023/01/19 01:27:47;;;;;;;2.58;0.77;;;3.80;99.90;;;;;;5023949;28;20046;-66
2023/01/19 01:30:13;;;;;;;3.65;0.50;;;3.80;99.90;;;;;;5016217;28;20045;-67
2023/01/19 01:32:39;;;;;;;2.88;0.30;;;3.80;99.90;;;;;;5018698;28;20061;-67
2023/01/19 01:35:07;;;;;;;1.73;0.50;;;3.80;99.90;;;;;;5025493;28;20117;-68
2023/01/19 01:37:34;;;;;;;2.00;0.40;;;3.80;99.90;;;;;;5015355;28;20518;-67
2023/01/19 01:39:59;;;;;;;0.82;0.30;;;3.80;99.90;;;;;;5021803;28;20053;-67
2023/01/19 01:42:29;;;;;;;0.50;0.10;;;3.80;99.90;;;;;;5020338;28;20421;-67
2023/01/19 01:44:58;;;;;;;2.80;0.55;;;3.80;99.90;;;;;;5009529;28;20120;-67
2023/01/19 01:47:33;;;;;;;1.77;0.30;;;3.80;99.90;;;;;;5017058;28;20046;-66
2023/01/19 01:50:14;;;;;;;2.08;0.40;;;3.80;99.90;;;;;;5010874;28;20124;-67
2023/01/19 01:52:46;;;;;;;2.10;0.52;;;3.80;99.90;;;;;;5019245;28;20429;-66
2023/01/19 01:55:13;;;;;;;5.45;0.55;;;3.90;99.90;;;;;;5029425;28;20501;-67
2023/01/19 01:57:45;;;;;;;2.58;0.50;;;3.90;99.90;;;;;;5019230;28;20124;-67
2023/01/19 02:00:11;;;;;;;4.38;0.50;;;3.90;99.90;;;;;;5019903;28;20037;-67
2023/01/19 02:02:49;;;;;;;1.90;0.20;;;3.90;99.90;;;;;;5019771;28;20211;-67
2023/01/19 02:05:35;;;;;;;4.45;0.75;;;3.90;99.90;;;;;;5022256;28;20095;-67
2023/01/19 02:13:45;;;;;;;0.65;0.20;;;3.90;99.90;;;;;;5020871;28;20144;-66
2023/01/19 02:16:13;;;;;;;6.38;0.43;;;3.90;99.90;;;;;;5020435;28;20495;-67
2023/01/19 02:18:39;;;;;;;4.13;0.30;;;4.00;99.90;;;;;;5012924;28;20057;-67
2023/01/19 02:21:34;;;;;;;2.90;0.55;;;3.90;99.90;;;;;;5019624;28;20072;-67
2023/01/19 02:24:01;;;;;;;2.42;0.20;;;3.90;99.90;;;;;;5022341;28;20462;-67
2023/01/19 02:26:35;;;;;;;2.03;0.40;;;3.90;99.90;;;;;;5024422;28;20073;-67
2023/01/19 02:29:13;;;;;;;0.77;0.30;;;3.90;99.90;;;;;;5017103;28;20116;-67
2023/01/19 02:31:39;;;;;;;0.65;0.20;;;3.90;99.90;;;;;;5017502;28;20437;-68
2023/01/19 02:34:08;;;;;;;6.30;0.85;;;3.90;99.90;;;;;;5023778;28;20045;-67
2023/01/19 02:36:49;;;;;;;0.75;0.43;;;3.80;99.90;;;;;;5013679;28;20050;-67
2023/01/19 02:39:18;;;;;;;7.25;0.63;;;3.80;99.90;;;;;;5016779;28;20517;-67
2023/01/19 02:41:58;;;;;;;0.50;0.20;;;3.90;99.90;;;;;;5019944;28;20046;-67
2023/01/19 02:44:25;;;;;;;0.28;0.05;;;3.80;99.90;;;;;;5020514;28;20513;-67
2023/01/19 02:46:53;;;;;;;2.17;0.40;;;3.80;99.90;;;;;;5019979;28;20038;-66
2023/01/19 02:49:19;;;;;;;0.93;0.25;;;3.80;99.90;;;;;;5018644;28;20505;-67
2023/01/19 02:51:44;;;;;;;0.77;0.20;;;3.80;99.90;;;;;;5019778;28;20038;-67
2023/01/19 02:54:29;;;;;;;1.03;0.40;;;3.80;99.90;;;;;;5019796;28;20076;-66
2023/01/19 02:57:23;;;;;;;3.92;0.40;;;3.80;99.90;;;;;;5023813;28;20037;-66
2023/01/19 03:00:08;;;;;;;2.33;0.20;;;3.80;99.90;;;;;;5024337;28;20057;-66
2023/01/19 03:03:03;;;;;;;0.50;0.10;;;3.80;99.90;;;;;;5020499;28;20506;-67
2023/01/19 03:05:32;;;;;;;1.10;0.30;;;3.80;99.90;;;;;;5023011;28;20053;-66
2023/01/19 03:08:13;;;;;;;0.68;0.15;;;3.80;99.90;;;;;;5018199;28;20041;-67
2023/01/19 03:10:48;;;;;;;1.10;0.32;;;3.80;99.90;;;;;;5020401;28;20041;-66
2023/01/19 03:13:35;;;;;;;1.85;0.30;;;3.80;99.90;;;;;;5023853;28;20072;-67
2023/01/19 03:16:19;;;;;;;1.52;0.38;;;3.80;99.90;;;;;;5023194;28;20042;-68
2023/01/19 03:18:52;;;;;;;1.73;0.32;;;3.80;99.90;;;;;;5022486;28;20133;-67
2023/01/19 03:21:21;;;;;;;1.55;0.43;;;3.80;99.90;;;;;;5025503;28;20095;-66
2023/01/19 03:23:49;;;;;;;2.65;1.23;;;3.80;99.90;;;;;;5022058;28;20091;-67
2023/01/19 03:26:20;;;;;;;4.28;0.40;;;3.80;99.90;;;;;;5020021;28;20423;-66
2023/01/19 03:28:47;;;;;;;3.20;0.80;;;3.80;99.90;;;;;;5025721;28;20033;-66
2023/01/19 03:31:20;;;;;;;3.35;0.70;;;3.80;99.90;;;;;;5019269;28;20056;-66
2023/01/19 03:33:53;;;;;;;3.03;0.60;;;3.90;99.90;;;;;;5020705;28;20038;-66
2023/01/19 03:36:28;;;;;;;3.50;0.82;;;3.90;99.90;;;;;;5025421;28;20357;-65
2023/01/19 03:38:56;;;;;;;2.85;0.70;;;3.90;99.90;;;;;;5025973;28;20113;-66
2023/01/19 03:41:23;;;;;;;4.15;0.73;;;3.90;99.90;;;;;;5024014;28;20514;-68
2023/01/19 03:43:51;;;;;;;8.10;0.88;;;3.90;99.90;;;;;;5016091;28;20042;-66
2023/01/19 03:46:19;;;;;;;2.33;0.50;;;3.90;99.90;;;;;;5011069;28;20486;-65
2023/01/19 03:48:46;;;;;;;3.42;0.63;;;3.90;99.90;;;;;;5021333;28;20033;-66
2023/01/19 03:51:13;;;;;;;1.77;0.38;;;3.90;99.90;;;;;;5024252;28;20041;-66
2023/01/19 03:53:39;;;;;;;3.08;0.80;;;3.90;99.90;;;;;;5022988;28;20057;-66
2023/01/19 03:56:07;;;;;;;2.63;1.05;;;3.90;99.90;;;;;;5019718;28;20057;-66
2023/01/19 03:58:33;;;;;;;1.75;0.57;;;3.90;99.90;;;;;;5022079;28;20061;-66
2023/01/19 04:00:58;;;;;;;4.33;1.00;;;3.90;99.90;;;;;;5024813;28;20038;-65
2023/01/19 04:03:24;;;;;;;3.83;0.70;;;4.00;99.90;;;;;;5025796;28;20415;-66
2023/01/19 04:05:50;;;;;;;4.67;1.03;;;4.00;99.90;;;;;;5024991;28;20045;-65
2023/01/19 04:08:16;;;;;;;4.53;1.05;;;4.00;99.90;;;;;;5020978;28;20048;-66
2023/01/19 04:10:41;;;;;;;2.40;0.30;;;4.10;99.90;;;;;;5020783;28;20136;-66
2023/01/19 04:13:07;;;;;;;5.00;0.43;;;4.10;99.90;;;;;;5024669;28;20041;-66
2023/01/19 04:15:32;;;;;;;8.63;0.53;;;4.00;99.90;;;;;;5020417;28;20045;-66
2023/01/19 04:17:59;;;;;;;3.80;0.30;;;4.00;99.90;;;;;;5016298;28;20090;-66
2023/01/19 04:20:26;;;;;;;3.72;0.73;;;4.10;99.90;;;;;;5023359;28;20033;-66
2023/01/19 04:22:53;;;;;;;0.73;0.30;;;4.10;99.90;;;;;;5018551;28;20045;-66
2023/01/19 04:25:20;;;;;;;1.48;0.32;;;4.00;99.90;;;;;;5024732;28;20506;-67
2023/01/19 04:27:46;;;;;;;3.00;0.28;;;4.00;99.90;;;;;;5023479;28;20056;-66
2023/01/19 04:30:12;;;;;;;3.77;0.73;;;4.00;99.90;;;;;;5000713;28;20064;-67
2023/01/19 04:32:37;;;;;;;1.65;0.45;;;4.00;99.90;;;;;;5019094;28;20045;-67
2023/01/19 04:35:03;;;;;;;4.30;1.00;;;4.00;99.90;;;;;;5024327;28;20560;-67
2023/01/19 04:37:29;;;;;;;4.47;0.85;;;4.00;99.90;;;;;;5024473;28;20097;-68
2023/01/19 04:39:55;;;;;;;3.70;0.47;;;4.10;99.90;;;;;;5021018;28;20120;-67
2023/01/19 04:42:21;;;;;;;4.27;0.77;;;4.00;99.90;;;;;;5023775;28;20049;-66
2023/01/19 04:44:47;;;;;;;3.40;0.32;;;4.10;99.90;;;;;;5027042;28;20034;-66
2023/01/19 04:47:13;;;;;;;1.13;0.20;;;4.00;99.90;;;;;;5017399;28;20534;-67
2023/01/19 04:49:39;;;;;;;2.50;0.43;;;4.00;99.90;;;;;;5035131;28;20049;-67
2023/01/19 04:52:05;;;;;;;4.68;1.27;;;4.10;99.90;;;;;;5017461;28;20037;-67
2023/01/19 04:54:31;;;;;;;3.35;0.50;;;4.00;99.90;;;;;;5023590;28;20041;-67
2023/01/19 04:56:57;;;;;;;4.50;0.40;;;4.00;99.90;;;;;;5005425;28;20072;-67
2023/01/19 04:59:23;;;;;;;1.63;0.30;;;4.00;99.90;;;;;;5023647;28;20033;-67
2023/01/19 05:01:48;;;;;;;0.40;0.20;;;4.00;99.90;;;;;;5000166;28;20068;-67
2023/01/19 05:04:14;;;;;;;2.43;0.13;;;4.00;99.90;;;;;;5017560;28;20056;-66
2023/01/19 05:06:40;;;;;;;1.67;0.52;;;4.00;99.90;;;;;;5018360;28;20046;-67
2023/01/19 05:09:07;;;;;;;1.63;0.50;;;4.00;99.90;;;;;;5018200;28;20042;-66
2023/01/19 05:11:34;;;;;;;2.92;0.35;;;3.90;99.90;;;;;;5024099;28;20041;-67
2023/01/19 05:14:00;;;;;;;2.35;0.50;;;3.90;99.90;;;;;;5016275;28;20441;-67
2023/01/19 05:16:26;;;;;;;3.07;0.20;;;3.90;99.90;;;;;;5013195;28;20033;-67
2023/01/19 05:18:51;;;;;;;3.45;0.30;;;3.80;99.90;;;;;;5015778;28;20092;-67
2023/01/19 05:21:17;;;;;;;2.17;0.90;;;3.80;99.90;;;;;;5020435;28;20052;-67
2023/01/19 05:23:43;;;;;;;1.83;0.23;;;3.80;99.90;;;;;;5017624;28;20042;-67
2023/01/19 05:26:09;;;;;;;1.70;0.30;;;3.80;99.90;;;;;;5022760;28;20044;-67
2023/01/19 05:28:35;;;;;;;2.20;0.43;;;3.80;99.90;;;;;;5015265;28;20046;-68
2023/01/19 05:31:01;;;;;;;2.27;0.43;;;3.80;99.90;;;;;;5022477;28;20044;-66
2023/01/19 05:33:26;;;;;;;1.85;0.50;;;3.70;99.90;;;;;;5016165;28;20160;-67
2023/01/19 05:35:53;;;;;;;6.27;0.63;;;3.70;99.90;;;;;;5010520;28;20050;-67
2023/01/19 05:38:19;;;;;;;12.98;1.02;;;3.70;99.90;;;;;;5036253;28;20045;-67
2023/01/19 05:40:46;;;;;;;1.40;0.30;;;3.70;99.90;;;;;;5015940;28;20056;-67
2023/01/19 05:43:12;;;;;;;3.75;0.45;;;3.70;99.90;;;;;;5016891;28;20483;-66
2023/01/19 05:45:40;;;;;;;4.63;1.08;;;3.70;99.90;;;;;;5017749;28;20125;-66
2023/01/19 05:48:07;;;;;;;4.50;0.45;;;3.60;99.90;;;;;;5020384;28;20052;-66
2023/01/19 05:50:33;;;;;;;2.40;0.55;;;3.60;99.90;;;;;;5030151;28;20046;-66
2023/01/19 05:53:00;;;;;;;6.45;0.47;;;3.60;99.90;;;;;;5022805;28;20046;-68
2023/01/19 05:55:26;;;;;;;1.75;0.40;;;3.60;99.90;;;;;;5026950;28;20102;-66
2023/01/19 05:57:52;;;;;;;3.03;1.23;;;3.60;99.90;;;;;;5019230;28;20042;-66
2023/01/19 06:00:18;;;;;;;3.43;0.50;;;3.60;99.90;;;;;;5014319;28;20584;-66
2023/01/19 06:02:45;;;;;;;0.95;0.40;;;3.60;99.90;;;;;;5017703;28;20057;-67
2023/01/19 06:05:11;;;;;;;2.40;0.65;;;3.60;99.90;;;;;;5018347;28;20049;-67
2023/01/19 06:07:36;;;;;;;5.40;0.60;;;3.60;99.90;;;;;;5023591;28;20038;-67
2023/01/19 06:10:02;;;;;;;3.77;0.60;;;3.60;99.90;;;;;;5018890;28;20471;-67
2023/01/19 06:12:28;;;;;;;4.85;1.02;;;3.60;99.90;;;;;;5021297;28;20038;-66
2023/01/19 06:14:54;;;;;;;7.20;0.90;;;3.70;99.90;;;;;;5023024;28;20532;-67
2023/01/19 06:17:19;;;;;;;8.37;1.37;;;3.70;99.90;;;;;;5021099;28;20668;-67
2023/01/19 06:19:45;;;;;;;7.97;0.57;;;3.80;99.90;;;;;;5021331;28;20410;-67
2023/01/19 06:22:11;;;;;;;1.93;0.60;;;3.80;99.90;;;;;;5017401;28;20207;-66
2023/01/19 06:24:36;;;;;;;4.00;0.60;;;3.80;99.90;;;;;;5020661;28;20042;-67
2023/01/19 06:27:02;;;;;;;7.17;1.67;;;3.80;99.90;;;;;;5016043;28;20140;-67
2023/01/19 06:29:28;;;;;;;2.73;0.63;;;3.90;99.90;;;;;;5023077;28;20358;-66
2023/01/19 06:31:54;;;;;;;5.47;0.90;;;3.90;99.90;;;;;;5015463;28;20064;-67
2023/01/19 06:34:20;;;;;;;5.72;0.60;;;4.00;99.90;;;;;;5020571;28;20430;-66
2023/01/19 06:36:46;;;;;;;7.13;1.20;;;4.10;99.90;;;;;;5014359;28;20515;-67
2023/01/19 06:39:12;;;;;;;4.90;0.90;;;4.00;99.90;;;;;;5016577;28;20066;-67
2023/01/19 06:41:37;;;;;;;8.45;0.90;;;4.00;99.90;;;;;;5003678;28;20402;-66
2023/01/19 06:44:04;;;;;;;9.60;0.97;;;4.00;99.90;;;;;;5018605;28;20048;-66
2023/01/19 06:46:30;;;;;;;4.85;1.30;;;4.00;99.90;;;;;;5020091;28;20204;-67
2023/01/19 06:48:56;;;;;;;4.05;0.75;;;4.00;99.90;;;;;;5016954;28;20037;-66
2023/01/19 06:51:22;;;;;;;6.43;0.70;;;4.00;99.90;;;;;;5028805;28;20049;-66
2023/01/19 06:53:48;;;;;;;2.53;1.00;;;3.90;99.90;;;;;;5027563;28;20045;-66
2023/01/19 06:56:14;;;;;;;7.60;1.27;;;3.90;99.90;;;;;;5025060;28;20502;-66
2023/01/19 06:58:40;;;;;;;7.07;0.90;;;3.90;99.90;;;;;;5030111;28;20094;-66
2023/01/19 07:01:07;;;;;;;6.80;0.82;;;3.90;99.90;;;;;;5024424;28;20042;-67
2023/01/19 07:03:33;;;;;;;9.68;1.23;;;3.90;99.90;;;;;;5023007;28;20053;-67
2023/01/19 07:06:01;;;;;;;6.57;1.10;;;3.90;99.90;;;;;;5017747;28;20045;-66
2023/01/19 07:08:27;;;;;;;7.93;1.60;;;4.00;99.90;;;;;;5024853;28;20041;-66
2023/01/19 07:11:03;;;;;;;4.18;0.88;;;3.90;99.90;;;;;;5024502;28;20129;-67
2023/01/19 07:13:29;;;;;;;7.97;1.42;;;3.90;99.90;;;;;;5024591;28;20188;-66
2023/01/19 07:15:55;;;;;;;6.25;0.82;;;3.90;99.90;;;;;;5022010;28;20150;-66
2023/01/19 07:18:20;;;;;;;11.03;1.30;;;3.90;99.90;;;;;;5022551;28;20078;-66
2023/01/19 07:20:49;;;;;;;6.60;0.77;;;3.90;99.90;;;;;;5018975;28;20074;-73
2023/01/19 07:23:15;;;;;;;5.90;1.00;;;3.90;99.90;;;;;;5025848;28;20038;-67
2023/01/19 07:25:44;;;;;;;5.63;1.38;;;4.00;99.90;;;;;;5025954;28;20160;-73
2023/01/19 07:28:14;;;;;;;5.18;0.90;;;4.00;99.90;;;;;;5027369;28;20208;-67
2023/01/19 07:30:44;;;;;;;7.15;1.05;;;4.00;99.90;;;;;;5025019;28;20041;-67
2023/01/19 07:33:10;;;;;;;8.90;1.05;;;4.00;99.90;;;;;;5024469;28;20499;-67
2023/01/19 07:35:36;;;;;;;8.48;1.00;;;4.00;99.90;;;;;;5018428;28;20417;-67
2023/01/19 07:38:02;;;;;;;4.77;0.90;;;4.00;99.90;;;;;;5021103;28;20041;-66
2023/01/19 07:40:28;;;;;;;9.80;1.27;;;4.10;99.90;;;;;;5016704;28;20038;-67
2023/01/19 07:42:54;;;;;;;8.40;2.27;;;4.00;99.90;;;;;;5026705;28;20048;-66
2023/01/19 07:45:20;;;;;;;14.88;1.65;;;4.00;99.90;;;;;;5017610;28;20049;-66
2023/01/19 07:47:47;;;;;;;10.27;2.45;;;4.00;99.90;;;;;;5018848;28;20044;-66
2023/01/19 07:50:20;;;;;;;5.97;1.38;;;4.00;99.90;;;;;;5016045;28;20172;-66
2023/01/19 07:52:46;;;;;;;3.55;1.13;;;4.10;99.90;;;;;;5021017;28;20099;-66
2023/01/19 07:55:11;;;;;;;6.50;1.13;;;4.10;99.90;;;;;;5018926;28;20049;-67
2023/01/19 07:57:37;;;;;;;9.70;1.83;;;4.00;99.90;;;;;;5023796;28;20271;-66
2023/01/19 08:00:04;;;;;;;4.67;1.40;;;4.00;99.90;;;;;;5015810;28;20088;-66
2023/01/19 08:02:32;;;;;;;6.07;1.23;;;4.00;99.90;;;;;;5021846;28;20502;-66
2023/01/19 08:04:58;;;;;;;5.28;1.27;;;4.00;99.90;;;;;;5017157;28;20060;-66
2023/01/19 08:07:24;;;;;;;9.83;1.77;;;4.00;99.90;;;;;;5025955;28;20038;-67
2023/01/19 08:09:49;;;;;;;7.07;1.43;;;3.90;99.90;;;;;;5019446;28;20037;-66
2023/01/19 08:12:16;;;;;;;13.30;2.37;;;3.90;99.90;;;;;;5022448;28;20119;-66
2023/01/19 08:14:41;;;;;;;6.93;1.45;;;3.90;99.90;;;;;;5015879;28;20048;-67
2023/01/19 08:17:12;;;;;;;9.20;0.97;;;3.90;99.90;;;;;;5018836;28;20045;-67
2023/01/19 08:19:38;;;;;;;13.05;1.98;;;3.90;99.90;;;;;;5023185;28;20107;-66
2023/01/19 08:22:04;;;;;;;8.93;1.53;;;3.80;99.90;;;;;;5019357;28;20061;-66
2023/01/19 08:24:31;;;;;;;11.02;1.40;;;3.80;99.90;;;;;;5024707;28;20383;-66
2023/01/19 08:27:01;;;;;;;9.45;1.40;;;3.80;99.90;;;;;;5026570;28;20045;-67
2023/01/19 08:29:29;;;;;;;12.85;1.52;;;3.80;99.90;;;;;;5021354;28;20108;-67
2023/01/19 08:31:57;;;;;;;12.75;1.42;;;3.80;99.90;;;;;;5021552;28;20469;-66
2023/01/19 08:34:23;;;;;;;13.23;1.38;;;3.80;99.90;;;;;;5015559;28;20365;-67
2023/01/19 08:36:48;;;;;;;9.17;1.70;;;3.80;99.90;;;;;;5020505;28;20071;-67
2023/01/19 08:39:16;;;;;;;5.60;1.40;;;3.80;99.90;;;;;;5013676;28;20050;-67
2023/01/19 08:41:42;;;;;;;10.23;2.13;;;3.80;99.90;;;;;;5015490;28;20106;-66
2023/01/19 08:44:08;;;;;;;6.65;1.42;;;3.80;99.90;;;;;;5012091;28;20041;-66
2023/01/19 08:46:34;;;;;;;6.17;1.43;;;3.80;99.90;;;;;;5022290;28;20517;-67
2023/01/19 08:48:59;;;;;;;9.27;1.30;;;3.80;99.90;;;;;;5009022;28;20200;-67
2023/01/19 08:51:25;;;;;;;6.67;1.47;;;3.80;99.90;;;;;;5019510;28;20434;-66
2023/01/19 08:53:50;;;;;;;4.70;1.23;;;3.80;99.90;;;;;;5014112;28;20038;-66
2023/01/19 08:56:16;;;;;;;4.47;1.00;;;3.80;99.90;;;;;;5028119;28;20080;-66
2023/01/19 08:58:43;;;;;;;8.70;1.03;;;3.70;99.90;;;;;;5027118;28;20176;-66
2023/01/19 09:01:19;;;;;;;3.55;1.73;;;3.70;99.90;;;;;;5016877;28;20424;-68
2023/01/19 09:03:45;;;;;;;7.97;1.85;;;3.70;99.90;;;;;;5021618;28;20045;-67
2023/01/19 09:06:15;;;;;;;6.95;1.50;;;3.80;99.90;;;;;;5021034;28;20045;-66
2023/01/19 09:08:42;;;;;;;6.18;1.65;;;3.80;99.90;;;;;;5020087;28;20330;-66
2023/01/19 09:11:12;;;;;;;4.68;1.10;;;3.80;99.90;;;;;;5023600;28;20034;-66
2023/01/19 09:13:40;;;;;;;7.55;1.55;;;3.80;99.90;;;;;;5024860;28;20536;-66
2023/01/19 09:16:06;;;;;;;12.18;1.77;;;3.80;99.90;;;;;;5021563;28;20059;-66
2023/01/19 09:18:33;;;;;;;14.10;1.90;;;3.80;99.90;;;;;;5013219;28;20037;-66
2023/01/19 09:20:59;;;;;;;;;;;3.80;99.90;;;;;;5019445;28;20402;-66
2023/01/19 09:23:25;;;;;;;8.15;2.15;;;3.80;99.90;;;;;;5021803;28;19928;-66
2023/01/19 09:25:58;;;;;;;8.80;1.60;;;3.90;99.90;;;;;;5024252;28;20041;-67
2023/01/19 09:28:24;;;;;;;3.63;1.38;;;3.90;99.90;;;;;;5020368;28;20060;-69
2023/01/19 09:30:50;;;;;;;10.37;1.90;;;4.00;99.90;;;;;;5016710;28;20045;-67
2023/01/19 09:33:17;;;;;;;11.90;1.80;;;4.00;99.90;;;;;;5019272;28;20506;-66
2023/01/19 09:35:45;;;;;;;9.07;1.40;;;4.00;99.90;;;;;;5023823;28;20208;-66
2023/01/19 09:38:14;;;;;;;11.07;2.05;;;4.10;99.90;;;;;;5023269;28;20585;-66
2023/01/19 09:40:52;;;;;;;11.40;1.85;;;4.10;99.90;;;;;;5023315;28;20073;-69
2023/01/19 09:43:31;;;;;;;12.88;2.00;;;4.20;99.90;;;;;;5013528;28;20527;-66
2023/01/19 09:46:01;;;;;;;11.20;1.48;;;4.30;99.90;;;;;;5019390;28;20132;-66
2023/01/19 09:48:33;;;;;;;8.63;1.10;;;4.30;99.90;;;;;;5017225;28;20098;-66
2023/01/19 09:51:03;;;;;;;10.00;1.27;;;4.40;99.90;;;;;;5021559;28;20037;-66
2023/01/19 09:53:59;;;;;;;5.00;1.23;;;4.40;99.90;;;;;;5016529;28;20034;-66
2023/01/19 09:56:27;;;;;;;4.30;0.90;;;4.50;99.90;;;;;;5019091;28;20076;-66
2023/01/19 09:58:53;;;;;;;8.20;1.98;;;4.50;99.90;;;;;;5012812;28;20068;-66
2023/01/19 10:01:18;;;;;;;10.63;2.47;;;4.60;99.90;;;;;;5020892;28;20068;-65
2023/01/19 10:03:44;;;;;;;7.37;1.07;;;4.70;99.90;;;;;;5021504;28;20038;-66
2023/01/19 10:06:13;;;;;;;5.77;1.00;;;4.70;99.90;;;;;;5023706;28;20350;-66
2023/01/19 10:08:43;;;;;;;4.13;1.23;;;4.70;99.90;;;;;;5019136;28;20099;-66
2023/01/19 10:11:24;;;;;;;6.47;1.08;;;4.80;99.90;;;;;;5021035;28;20099;-66
2023/01/19 10:13:51;;;;;;;3.95;0.82;;;4.80;99.90;;;;;;5015226;28;20037;-66
2023/01/19 10:16:33;;;;;;;4.53;0.82;;;4.90;99.90;;;;;;5023595;28;20107;-66
2023/01/19 10:19:22;;;;;;;7.95;1.13;;;4.90;99.90;;;;;;5020104;28;20280;-66
2023/01/19 10:21:50;;;;;;;7.32;1.02;;;5.00;99.90;;;;;;5019473;28;20038;-66
2023/01/19 10:24:24;;;;;;;10.40;0.93;;;5.10;99.90;;;;;;5022750;28;20041;-66
2023/01/19 10:26:53;;;;;;;12.98;1.23;;;5.10;99.90;;;;;;5024443;28;20121;-66
2023/01/19 10:29:39;;;;;;;2.72;0.57;;;5.20;99.90;;;;;;5021823;28;20073;-66
2023/01/19 10:32:18;;;;;;;8.93;1.33;;;5.20;99.90;;;;;;5016979;28;20110;-66
2023/01/19 10:34:45;;;;;;;10.02;1.58;;;5.30;99.90;;;;;;5039967;28;20053;-66
2023/01/19 10:37:16;;;;;;;;;;;5.30;99.90;;;;;;5026186;28;20107;-66
2023/01/19 10:39:50;;;;;;;11.63;1.20;;;5.40;99.90;;;;;;5019557;28;19917;-66
2023/01/19 10:42:16;;;;;;;13.07;1.15;;;5.40;99.90;;;;;;5023153;28;20110;-66
2023/01/19 10:44:44;;;;;;;9.13;2.17;;;5.50;99.90;;;;;;5024669;28;20228;-66
2023/01/19 10:47:21;;;;;;;5.25;1.05;;;5.50;99.90;;;;;;5024323;28;20378;-66
2023/01/19 10:49:47;;;;;;;7.95;1.48;;;5.60;99.90;;;;;;5024710;28;20045;-66
2023/01/19 10:52:32;;;;;;;4.63;1.40;;;5.70;99.90;;;;;;5026559;28;20044;-66
2023/01/19 10:55:01;;;;;;;6.45;1.10;;;5.80;99.90;;;;;;5021886;28;20049;-66
2023/01/19 10:57:35;;;;;;;5.95;1.05;;;5.80;99.90;;;;;;5026151;28;20037;-66
2023/01/19 11:00:02;;;;;;;5.82;1.10;;;5.80;99.90;;;;;;5021147;28;21342;-65
2023/01/19 11:02:30;;;;;;;10.82;1.23;;;5.90;99.90;;;;;;5020470;28;20132;-66
2023/01/19 11:05:01;;;;;;;8.20;0.98;;;5.90;99.90;;;;;;5032261;28;20426;-66
2023/01/19 11:07:33;;;;;;;10.13;1.77;;;6.00;99.90;;;;;;5034448;28;20049;-67
2023/01/19 11:10:19;;;;;;;8.23;0.88;;;6.00;99.90;;;;;;5016945;28;20089;-66
2023/01/19 11:12:59;;;;;;;6.88;0.90;;;6.10;99.90;;;;;;5020359;28;20041;-67
2023/01/19 11:15:25;;;;;;;8.75;1.05;;;6.10;99.90;;;;;;5022671;28;20053;-66
2023/01/19 11:17:52;;;;;;;3.20;0.83;;;6.20;99.90;;;;;;5025681;28;20037;-65
2023/01/19 11:20:32;;;;;;;3.42;1.25;;;6.30;99.90;;;;;;5026295;28;20577;-66
2023/01/19 11:23:13;;;;;;;9.80;1.63;;;6.20;99.90;;;;;;5023836;28;20045;-67
2023/01/19 11:25:40;;;;;;;3.80;1.33;;;6.30;99.90;;;;;;5024177;28;20045;-67
2023/01/19 11:28:14;;;;;;;2.40;0.63;;;6.30;99.90;;;;;;5022631;28;20509;-66
2023/01/19 11:31:00;;;;;;;5.13;1.50;;;6.30;99.90;;;;;;5023474;28;20046;-67
2023/01/19 11:33:33;;;;;;;2.67;0.70;;;6.40;99.90;;;;;;5019903;28;20503;-66
2023/01/19 11:36:22;;;;;;;5.85;0.93;;;6.40;99.90;;;;;;5016661;28;20052;-65
2023/01/19 11:39:15;;;;;;;8.50;1.02;;;6.50;99.90;;;;;;5032361;28;20526;-67
2023/01/19 11:41:41;;;;;;;3.97;1.00;;;6.50;99.90;;;;;;5006715;28;20041;-67
2023/01/19 11:44:18;;;;;;;5.88;0.90;;;6.50;99.90;;;;;;5019983;28;20036;-66
2023/01/19 11:46:47;;;;;;;4.70;0.52;;;6.60;99.90;;;;;;5006378;28;20369;-65
2023/01/19 11:49:22;;;;;;;7.20;1.42;;;6.70;99.90;;;;;;5021675;28;20136;-66
2023/01/19 11:52:12;;;;;;;6.72;0.40;;;6.70;99.90;;;;;;5019180;28;20101;-66
2023/01/19 11:54:48;;;;;;;4.53;0.75;;;6.80;99.90;;;;;;5023611;28;20075;-67
2023/01/19 11:57:19;;;;;;;2.40;0.70;;;6.80;99.90;;;;;;5025413;28;20033;-67
2023/01/19 11:59:44;;;;;;;5.30;0.90;;;6.90;99.90;;;;;;5024326;28;20053;-67
2023/01/19 12:02:25;;;;;;;4.83;0.50;;;7.00;99.90;;;;;;5025861;28;20034;-67
2023/01/19 12:04:55;;;;;;;4.45;0.50;;;7.00;99.90;;;;;;5026073;28;20289;-67
2023/01/19 12:07:29;;;;;;;6.70;0.80;;;7.00;99.90;;;;;;5025881;28;20446;-66
2023/01/19 12:10:06;;;;;;;3.00;1.00;;;7.00;99.90;;;;;;5016553;28;20480;-66
2023/01/19 12:12:34;;;;;;;4.45;0.68;;;7.10;99.90;;;;;;5024140;28;20037;-65
2023/01/19 12:15:17;;;;;;;4.90;0.68;;;7.10;99.90;;;;;;5018167;28;20057;-66
2023/01/19 12:17:48;;;;;;;0.40;0.20;;;7.30;99.90;;;;;;5026847;28;20065;-66
2023/01/19 12:20:37;;;;;;;1.33;0.30;;;7.20;99.90;;;;;;5025393;28;20033;-66
2023/01/19 12:23:20;;;;;;;2.95;0.50;;;7.10;99.90;;;;;;5019634;28;20470;-66
2023/01/19 12:26:12;;;;;;;3.17;0.35;;;7.00;99.90;;;;;;5020856;28;20524;-66
2023/01/19 12:28:41;;;;;;;3.20;0.55;;;6.80;99.90;;;;;;5000126;28;20049;-66
2023/01/19 12:31:08;;;;;;;3.80;0.90;;;6.60;99.90;;;;;;5020252;28;20048;-66
2023/01/19 12:33:38;;;;;;;5.47;0.40;;;6.50;99.90;;;;;;5015940;28;20045;-66
2023/01/19 12:36:16;;;;;;;5.75;0.60;;;6.40;99.90;;;;;;5018794;28;20044;-66
2023/01/19 12:38:54;;;;;;;6.35;1.15;;;6.30;99.90;;;;;;5021356;28;20483;-66
2023/01/19 12:41:36;;;;;;;2.92;0.57;;;6.30;99.90;;;;;;5019536;28;20152;-66
2023/01/19 12:44:11;;;;;;;1.88;0.50;;;6.30;99.90;;;;;;5020720;28;20433;-66
2023/01/19 12:46:39;;;;;;;4.50;0.73;;;6.20;99.90;;;;;;5022678;28;20039;-66
2023/01/19 12:49:13;;;;;;;8.48;0.82;;;6.10;99.90;;;;;;5017155;28;20069;-67
2023/01/19 12:51:38;;;;;;;5.28;1.75;;;6.10;99.90;;;;;;5019433;28;20050;-66
2023/01/19 12:54:07;;;;;;;3.00;0.90;;;6.10;99.90;;;;;;5030899;22;20049;-67
2023/01/19 12:56:34;;;;;;;6.60;0.93;;;6.00;99.90;;;;;;5014550;28;20046;-68
2023/01/19 12:59:01;;;;;;;6.57;0.77;;;5.90;99.90;;;;;;5024427;28;20360;-67
2023/01/19 13:01:26;;;;;;;6.97;0.70;;;5.90;99.90;;;;;;5035772;28;20045;-67
2023/01/19 13:04:08;;;;;;;4.60;0.67;;;5.90;99.90;;;;;;5035167;28;20402;-67
2023/01/19 13:06:46;;;;;;;3.65;1.20;;;5.80;99.90;;;;;;5030325;28;20037;-67
2023/01/19 13:09:31;;;;;;;4.40;0.68;;;5.70;99.90;;;;;;5034765;28;20041;-67
2023/01/19 13:12:18;;;;;;;7.82;0.98;;;5.70;99.90;;;;;;5033187;28;20037;-68
2023/01/19 13:14:43;;;;;;;5.55;0.50;;;5.70;99.90;;;;;;5024224;28;20065;-67
2023/01/19 13:17:51;;;;;;;2.37;0.70;;;5.70;99.90;;;;;;5024839;28;20088;-68